sensor_id;sensor_type;location;lat;lon;timestamp;temperature;humidity
429;DHT22;201;48.758;9.290;2024-03-25T00:01:32;4.70;1.00
429;DHT22;201;48.758;9.290;2024-03-25T00:03:58;4.70;1.00
429;DHT22;201;48.758;9.290;2024-03-25T00:06:23;4.70;1.00
429;DHT22;201;48.758;9.290;2024-03-25T00:08:49;4.80;1.00
429;DHT22;201;48.758;9.290;2024-03-25T00:11:14;4.80;1.00
429;DHT22;201;48.758;9.290;2024-03-25T00:13:40;4.80;1.00
429;DHT22;201;48.758;9.290;2024-03-25T00:16:06;4.80;1.00
429;DHT22;201;48.758;9.290;2024-03-25T00:18:32;4.80;1.00
429;DHT22;201;48.758;9.290;2024-03-25T00:20:57;4.80;1.00
429;DHT22;201;48.758;9.290;2024-03-25T00:23:23;4.80;1.00
429;DHT22;201;48.758;9.290;2024-03-25T00:25:48;4.80;1.00
429;DHT22;201;48.758;9.290;2024-03-25T00:28:14;4.80;1.00
429;DHT22;201;48.758;9.290;2024-03-25T00:30:39;4.80;1.00
429;DHT22;201;48.758;9.290;2024-03-25T00:33:05;4.80;1.00
429;DHT22;201;48.758;9.290;2024-03-25T00:35:32;4.80;1.00
429;DHT22;201;48.758;9.290;2024-03-25T00:37:58;4.80;1.00
429;DHT22;201;48.758;9.290;2024-03-25T00:40:24;4.70;1.00
429;DHT22;201;48.758;9.290;2024-03-25T00:42:50;4.70;1.00
429;DHT22;201;48.758;9.290;2024-03-25T00:45:15;4.70;1.00
429;DHT22;201;48.758;9.290;2024-03-25T00:47:41;4.60;1.00
429;DHT22;201;48.758;9.290;2024-03-25T00:50:07;4.60;1.00
429;DHT22;201;48.758;9.290;2024-03-25T00:52:33;4.60;1.00
429;DHT22;201;48.758;9.290;2024-03-25T00:54:58;4.50;1.00
429;DHT22;201;48.758;9.290;2024-03-25T00:57:24;4.50;1.00
429;DHT22;201;48.758;9.290;2024-03-25T00:59:49;4.50;1.00
429;DHT22;201;48.758;9.290;2024-03-25T01:02:15;4.50;1.00
429;DHT22;201;48.758;9.290;2024-03-25T01:04:40;4.50;1.00
429;DHT22;201;48.758;9.290;2024-03-25T01:07:06;4.60;1.00
429;DHT22;201;48.758;9.290;2024-03-25T01:09:31;4.50;1.00
429;DHT22;201;48.758;9.290;2024-03-25T01:11:57;4.60;1.00
429;DHT22;201;48.758;9.290;2024-03-25T01:14:22;4.60;1.00
429;DHT22;201;48.758;9.290;2024-03-25T01:16:48;4.60;1.00
429;DHT22;201;48.758;9.290;2024-03-25T01:19:13;4.60;1.00
429;DHT22;201;48.758;9.290;2024-03-25T01:21:39;4.70;1.00
429;DHT22;201;48.758;9.290;2024-03-25T01:24:05;4.60;1.00
429;DHT22;201;48.758;9.290;2024-03-25T01:26:30;4.60;1.00
429;DHT22;201;48.758;9.290;2024-03-25T01:28:56;4.60;1.00
429;DHT22;201;48.758;9.290;2024-03-25T01:31:22;4.70;1.00
429;DHT22;201;48.758;9.290;2024-03-25T01:33:47;4.70;1.00
429;DHT22;201;48.758;9.290;2024-03-25T01:36:13;4.60;1.00
429;DHT22;201;48.758;9.290;2024-03-25T01:38:43;4.60;1.00
429;DHT22;201;48.758;9.290;2024-03-25T01:41:10;4.60;1.00
429;DHT22;201;48.758;9.290;2024-03-25T01:43:36;4.60;1.00
429;DHT22;201;48.758;9.290;2024-03-25T01:46:02;4.60;1.00
429;DHT22;201;48.758;9.290;2024-03-25T01:48:28;4.50;1.00
429;DHT22;201;48.758;9.290;2024-03-25T01:50:54;4.50;1.00
429;DHT22;201;48.758;9.290;2024-03-25T01:53:21;4.50;1.00
429;DHT22;201;48.758;9.290;2024-03-25T01:55:48;4.50;1.00
429;DHT22;201;48.758;9.290;2024-03-25T01:58:14;4.50;1.00
429;DHT22;201;48.758;9.290;2024-03-25T02:00:40;4.50;1.00
429;DHT22;201;48.758;9.290;2024-03-25T02:03:08;4.50;1.00
429;DHT22;201;48.758;9.290;2024-03-25T02:05:34;4.50;1.00
429;DHT22;201;48.758;9.290;2024-03-25T02:08:00;4.50;1.00
429;DHT22;201;48.758;9.290;2024-03-25T02:10:26;4.50;1.00
429;DHT22;201;48.758;9.290;2024-03-25T02:12:53;4.50;1.00
429;DHT22;201;48.758;9.290;2024-03-25T02:15:18;4.50;1.00
429;DHT22;201;48.758;9.290;2024-03-25T02:17:44;4.60;1.00
429;DHT22;201;48.758;9.290;2024-03-25T02:20:10;4.50;1.00
429;DHT22;201;48.758;9.290;2024-03-25T02:22:36;4.50;1.00
429;DHT22;201;48.758;9.290;2024-03-25T02:25:07;4.50;1.00
429;DHT22;201;48.758;9.290;2024-03-25T02:27:36;4.50;1.00
429;DHT22;201;48.758;9.290;2024-03-25T02:30:06;4.60;1.00
429;DHT22;201;48.758;9.290;2024-03-25T02:32:33;4.60;1.00
429;DHT22;201;48.758;9.290;2024-03-25T02:34:59;4.60;1.00
429;DHT22;201;48.758;9.290;2024-03-25T02:37:26;4.60;1.00
429;DHT22;201;48.758;9.290;2024-03-25T02:39:58;4.70;1.00
429;DHT22;201;48.758;9.290;2024-03-25T02:42:25;4.70;1.00
429;DHT22;201;48.758;9.290;2024-03-25T02:44:55;4.70;1.00
429;DHT22;201;48.758;9.290;2024-03-25T02:47:21;4.60;1.00
429;DHT22;201;48.758;9.290;2024-03-25T02:49:46;4.60;1.00
429;DHT22;201;48.758;9.290;2024-03-25T02:52:12;4.60;1.00
429;DHT22;201;48.758;9.290;2024-03-25T02:54:37;4.70;1.00
429;DHT22;201;48.758;9.290;2024-03-25T02:57:03;4.70;1.00
429;DHT22;201;48.758;9.290;2024-03-25T02:59:29;4.70;1.00
429;DHT22;201;48.758;9.290;2024-03-25T03:01:54;4.70;1.00
429;DHT22;201;48.758;9.290;2024-03-25T03:04:20;4.70;1.00
429;DHT22;201;48.758;9.290;2024-03-25T03:06:45;4.80;1.00
429;DHT22;201;48.758;9.290;2024-03-25T03:09:11;4.80;1.00
429;DHT22;201;48.758;9.290;2024-03-25T03:11:36;4.80;1.00
429;DHT22;201;48.758;9.290;2024-03-25T03:14:02;4.80;1.00
429;DHT22;201;48.758;9.290;2024-03-25T03:16:28;4.80;1.00
429;DHT22;201;48.758;9.290;2024-03-25T03:18:54;4.80;1.00
429;DHT22;201;48.758;9.290;2024-03-25T03:21:20;4.80;1.00
429;DHT22;201;48.758;9.290;2024-03-25T03:23:45;4.90;1.00
429;DHT22;201;48.758;9.290;2024-03-25T03:26:11;4.90;1.00
429;DHT22;201;48.758;9.290;2024-03-25T03:28:37;4.90;1.00
429;DHT22;201;48.758;9.290;2024-03-25T03:31:02;4.90;1.00
429;DHT22;201;48.758;9.290;2024-03-25T03:33:28;4.90;1.00
429;DHT22;201;48.758;9.290;2024-03-25T03:35:53;4.80;1.00
429;DHT22;201;48.758;9.290;2024-03-25T03:38:21;4.70;1.00
429;DHT22;201;48.758;9.290;2024-03-25T03:41:02;4.60;1.00
429;DHT22;201;48.758;9.290;2024-03-25T03:43:28;4.60;1.00
429;DHT22;201;48.758;9.290;2024-03-25T03:45:54;4.50;1.00
429;DHT22;201;48.758;9.290;2024-03-25T03:48:20;4.40;1.00
429;DHT22;201;48.758;9.290;2024-03-25T03:50:45;4.20;1.00
429;DHT22;201;48.758;9.290;2024-03-25T03:53:11;4.10;1.00
429;DHT22;201;48.758;9.290;2024-03-25T03:55:37;4.00;1.00
429;DHT22;201;48.758;9.290;2024-03-25T03:58:03;4.00;1.40
429;DHT22;201;48.758;9.290;2024-03-25T04:00:29;3.90;1.70
429;DHT22;201;48.758;9.290;2024-03-25T04:02:54;3.90;1.90
429;DHT22;201;48.758;9.290;2024-03-25T04:05:20;3.90;2.00
429;DHT22;201;48.758;9.290;2024-03-25T04:07:45;3.90;2.20
429;DHT22;201;48.758;9.290;2024-03-25T04:10:11;3.90;2.30
429;DHT22;201;48.758;9.290;2024-03-25T04:12:37;4.00;2.00
429;DHT22;201;48.758;9.290;2024-03-25T04:15:03;4.00;2.10
429;DHT22;201;48.758;9.290;2024-03-25T04:17:29;4.00;1.80
429;DHT22;201;48.758;9.290;2024-03-25T04:19:54;4.00;1.40
429;DHT22;201;48.758;9.290;2024-03-25T04:22:20;4.00;1.50
429;DHT22;201;48.758;9.290;2024-03-25T04:24:46;4.00;1.60
429;DHT22;201;48.758;9.290;2024-03-25T04:27:12;4.10;1.80
429;DHT22;201;48.758;9.290;2024-03-25T04:29:38;4.10;1.50
429;DHT22;201;48.758;9.290;2024-03-25T04:32:03;4.00;1.40
429;DHT22;201;48.758;9.290;2024-03-25T04:34:30;4.00;1.40
429;DHT22;201;48.758;9.290;2024-03-25T04:36:56;4.00;1.80
429;DHT22;201;48.758;9.290;2024-03-25T04:39:21;3.90;1.70
429;DHT22;201;48.758;9.290;2024-03-25T04:41:47;3.90;1.80
429;DHT22;201;48.758;9.290;2024-03-25T04:44:13;3.90;1.70
429;DHT22;201;48.758;9.290;2024-03-25T04:46:38;4.00;1.80
429;DHT22;201;48.758;9.290;2024-03-25T04:49:04;4.00;1.80
429;DHT22;201;48.758;9.290;2024-03-25T04:51:29;4.00;1.80
429;DHT22;201;48.758;9.290;2024-03-25T04:53:55;4.00;1.80
429;DHT22;201;48.758;9.290;2024-03-25T04:56:20;4.10;1.90
429;DHT22;201;48.758;9.290;2024-03-25T04:58:46;4.10;1.90
429;DHT22;201;48.758;9.290;2024-03-25T05:01:11;4.00;1.50
429;DHT22;201;48.758;9.290;2024-03-25T05:03:37;4.00;1.60
429;DHT22;201;48.758;9.290;2024-03-25T05:06:02;4.10;1.70
429;DHT22;201;48.758;9.290;2024-03-25T05:08:30;4.10;1.50
429;DHT22;201;48.758;9.290;2024-03-25T05:10:56;4.10;1.50
429;DHT22;201;48.758;9.290;2024-03-25T05:13:21;4.00;1.30
429;DHT22;201;48.758;9.290;2024-03-25T05:15:50;4.00;1.40
429;DHT22;201;48.758;9.290;2024-03-25T05:18:17;4.00;1.40
429;DHT22;201;48.758;9.290;2024-03-25T05:20:43;4.00;1.30
429;DHT22;201;48.758;9.290;2024-03-25T05:23:08;4.00;1.50
429;DHT22;201;48.758;9.290;2024-03-25T05:25:37;4.00;1.70
429;DHT22;201;48.758;9.290;2024-03-25T05:28:04;4.00;1.70
429;DHT22;201;48.758;9.290;2024-03-25T05:30:29;4.00;1.80
429;DHT22;201;48.758;9.290;2024-03-25T05:32:55;4.10;1.60
429;DHT22;201;48.758;9.290;2024-03-25T05:35:20;4.20;1.50
429;DHT22;201;48.758;9.290;2024-03-25T05:37:46;4.20;1.20
429;DHT22;201;48.758;9.290;2024-03-25T05:40:12;4.30;1.80
429;DHT22;201;48.758;9.290;2024-03-25T05:42:38;4.30;1.00
429;DHT22;201;48.758;9.290;2024-03-25T05:45:04;4.40;1.00
429;DHT22;201;48.758;9.290;2024-03-25T05:47:29;4.40;1.00
429;DHT22;201;48.758;9.290;2024-03-25T05:49:55;4.50;1.00
429;DHT22;201;48.758;9.290;2024-03-25T05:52:20;4.50;1.00
429;DHT22;201;48.758;9.290;2024-03-25T05:54:46;4.70;1.00
429;DHT22;201;48.758;9.290;2024-03-25T05:57:12;4.60;1.00
429;DHT22;201;48.758;9.290;2024-03-25T05:59:37;4.60;1.00
429;DHT22;201;48.758;9.290;2024-03-25T06:02:03;4.60;1.00
429;DHT22;201;48.758;9.290;2024-03-25T06:04:28;4.70;1.00
429;DHT22;201;48.758;9.290;2024-03-25T06:06:54;4.80;1.00
429;DHT22;201;48.758;9.290;2024-03-25T06:09:19;4.90;1.00
429;DHT22;201;48.758;9.290;2024-03-25T06:11:45;4.90;1.00
429;DHT22;201;48.758;9.290;2024-03-25T06:14:10;5.00;1.00
429;DHT22;201;48.758;9.290;2024-03-25T06:16:36;5.10;1.00
429;DHT22;201;48.758;9.290;2024-03-25T06:19:01;5.20;1.00
429;DHT22;201;48.758;9.290;2024-03-25T06:21:27;5.10;1.00
429;DHT22;201;48.758;9.290;2024-03-25T06:23:54;5.10;1.00
429;DHT22;201;48.758;9.290;2024-03-25T06:26:19;5.10;1.00
429;DHT22;201;48.758;9.290;2024-03-25T06:28:45;5.10;1.00
429;DHT22;201;48.758;9.290;2024-03-25T06:31:11;5.10;1.00
429;DHT22;201;48.758;9.290;2024-03-25T06:33:55;5.00;1.00
429;DHT22;201;48.758;9.290;2024-03-25T06:36:39;5.10;1.00
429;DHT22;201;48.758;9.290;2024-03-25T06:39:05;5.10;1.00
429;DHT22;201;48.758;9.290;2024-03-25T06:41:31;5.00;1.00
429;DHT22;201;48.758;9.290;2024-03-25T06:43:56;5.00;1.00
429;DHT22;201;48.758;9.290;2024-03-25T06:46:22;5.10;1.00
429;DHT22;201;48.758;9.290;2024-03-25T06:48:48;5.50;1.00
429;DHT22;201;48.758;9.290;2024-03-25T06:51:13;6.10;1.00
429;DHT22;201;48.758;9.290;2024-03-25T06:53:39;7.70;1.00
429;DHT22;201;48.758;9.290;2024-03-25T06:56:04;8.80;1.00
429;DHT22;201;48.758;9.290;2024-03-25T06:58:30;9.10;1.00
429;DHT22;201;48.758;9.290;2024-03-25T07:00:56;9.20;1.00
429;DHT22;201;48.758;9.290;2024-03-25T07:03:23;9.30;1.00
429;DHT22;201;48.758;9.290;2024-03-25T07:05:50;8.90;1.00
429;DHT22;201;48.758;9.290;2024-03-25T07:08:18;9.10;1.00
429;DHT22;201;48.758;9.290;2024-03-25T07:10:45;9.30;1.00
429;DHT22;201;48.758;9.290;2024-03-25T07:13:11;9.10;1.00
429;DHT22;201;48.758;9.290;2024-03-25T07:15:37;9.90;1.00
429;DHT22;201;48.758;9.290;2024-03-25T07:18:03;10.60;1.00
429;DHT22;201;48.758;9.290;2024-03-25T07:20:29;10.90;1.00
429;DHT22;201;48.758;9.290;2024-03-25T07:22:54;10.60;1.00
429;DHT22;201;48.758;9.290;2024-03-25T07:25:25;10.60;1.00
429;DHT22;201;48.758;9.290;2024-03-25T07:27:51;10.60;1.00
429;DHT22;201;48.758;9.290;2024-03-25T07:30:18;10.30;1.00
429;DHT22;201;48.758;9.290;2024-03-25T07:32:44;12.30;1.00
429;DHT22;201;48.758;9.290;2024-03-25T07:35:13;14.60;1.00
429;DHT22;201;48.758;9.290;2024-03-25T07:37:38;16.70;1.00
429;DHT22;201;48.758;9.290;2024-03-25T07:40:04;18.70;1.00
429;DHT22;201;48.758;9.290;2024-03-25T07:42:30;20.20;1.00
429;DHT22;201;48.758;9.290;2024-03-25T07:44:56;19.70;1.00
429;DHT22;201;48.758;9.290;2024-03-25T07:47:21;19.70;1.00
429;DHT22;201;48.758;9.290;2024-03-25T07:49:47;21.00;1.00
429;DHT22;201;48.758;9.290;2024-03-25T07:52:12;21.90;1.00
429;DHT22;201;48.758;9.290;2024-03-25T07:54:39;21.90;1.00
429;DHT22;201;48.758;9.290;2024-03-25T07:57:04;23.30;1.00
429;DHT22;201;48.758;9.290;2024-03-25T07:59:30;23.20;1.00
429;DHT22;201;48.758;9.290;2024-03-25T08:01:56;23.70;1.00
429;DHT22;201;48.758;9.290;2024-03-25T08:04:21;24.80;1.00
429;DHT22;201;48.758;9.290;2024-03-25T08:06:47;26.10;1.00
429;DHT22;201;48.758;9.290;2024-03-25T08:09:12;27.20;1.00
429;DHT22;201;48.758;9.290;2024-03-25T08:11:41;27.90;1.00
429;DHT22;201;48.758;9.290;2024-03-25T08:14:09;28.60;1.00
429;DHT22;201;48.758;9.290;2024-03-25T08:16:34;28.70;1.00
429;DHT22;201;48.758;9.290;2024-03-25T08:19:00;28.00;1.00
429;DHT22;201;48.758;9.290;2024-03-25T08:21:25;28.20;1.00
429;DHT22;201;48.758;9.290;2024-03-25T08:23:51;27.00;1.00
429;DHT22;201;48.758;9.290;2024-03-25T08:26:17;25.00;1.00
429;DHT22;201;48.758;9.290;2024-03-25T08:28:42;24.20;1.00
429;DHT22;201;48.758;9.290;2024-03-25T08:31:08;24.10;1.00
429;DHT22;201;48.758;9.290;2024-03-25T08:33:33;23.40;1.00
429;DHT22;201;48.758;9.290;2024-03-25T08:35:58;22.60;1.00
429;DHT22;201;48.758;9.290;2024-03-25T08:38:24;22.10;1.00
429;DHT22;201;48.758;9.290;2024-03-25T08:40:51;21.30;1.00
429;DHT22;201;48.758;9.290;2024-03-25T08:43:17;19.50;1.00
429;DHT22;201;48.758;9.290;2024-03-25T08:45:44;20.50;1.00
429;DHT22;201;48.758;9.290;2024-03-25T08:48:11;22.80;1.00
429;DHT22;201;48.758;9.290;2024-03-25T08:50:37;22.90;1.00
429;DHT22;201;48.758;9.290;2024-03-25T08:53:03;21.80;1.00
429;DHT22;201;48.758;9.290;2024-03-25T08:55:29;20.30;1.00
429;DHT22;201;48.758;9.290;2024-03-25T08:57:54;17.90;1.00
429;DHT22;201;48.758;9.290;2024-03-25T09:00:20;15.60;1.00
429;DHT22;201;48.758;9.290;2024-03-25T09:02:46;14.20;1.00
429;DHT22;201;48.758;9.290;2024-03-25T09:05:11;13.70;1.00
429;DHT22;201;48.758;9.290;2024-03-25T09:07:39;13.40;1.00
429;DHT22;201;48.758;9.290;2024-03-25T09:10:05;13.40;1.00
429;DHT22;201;48.758;9.290;2024-03-25T09:12:49;13.20;1.00
429;DHT22;201;48.758;9.290;2024-03-25T09:15:14;13.60;1.00
429;DHT22;201;48.758;9.290;2024-03-25T09:17:40;14.60;1.00
429;DHT22;201;48.758;9.290;2024-03-25T09:20:06;15.00;1.00
429;DHT22;201;48.758;9.290;2024-03-25T09:22:44;14.80;1.00
429;DHT22;201;48.758;9.290;2024-03-25T09:25:10;14.50;1.00
429;DHT22;201;48.758;9.290;2024-03-25T09:27:36;14.70;1.00
429;DHT22;201;48.758;9.290;2024-03-25T09:30:02;15.50;1.00
429;DHT22;201;48.758;9.290;2024-03-25T09:32:29;17.70;1.00
429;DHT22;201;48.758;9.290;2024-03-25T09:34:56;18.70;1.00
429;DHT22;201;48.758;9.290;2024-03-25T09:37:22;20.60;1.00
429;DHT22;201;48.758;9.290;2024-03-25T09:39:47;23.60;1.00
429;DHT22;201;48.758;9.290;2024-03-25T09:42:15;24.50;1.00
429;DHT22;201;48.758;9.290;2024-03-25T09:44:44;25.90;1.00
429;DHT22;201;48.758;9.290;2024-03-25T09:47:10;27.70;1.00
429;DHT22;201;48.758;9.290;2024-03-25T09:49:38;28.30;1.00
429;DHT22;201;48.758;9.290;2024-03-25T09:52:06;25.90;1.00
429;DHT22;201;48.758;9.290;2024-03-25T09:54:32;25.40;1.00
429;DHT22;201;48.758;9.290;2024-03-25T09:56:59;25.20;1.00
429;DHT22;201;48.758;9.290;2024-03-25T09:59:24;23.20;1.00
429;DHT22;201;48.758;9.290;2024-03-25T10:01:50;23.00;1.00
429;DHT22;201;48.758;9.290;2024-03-25T10:04:16;25.00;1.00
429;DHT22;201;48.758;9.290;2024-03-25T10:06:41;26.70;1.00
429;DHT22;201;48.758;9.290;2024-03-25T10:09:07;27.80;1.00
429;DHT22;201;48.758;9.290;2024-03-25T10:11:34;29.70;1.00
429;DHT22;201;48.758;9.290;2024-03-25T10:14:01;29.80;1.00
429;DHT22;201;48.758;9.290;2024-03-25T10:16:27;29.70;1.00
429;DHT22;201;48.758;9.290;2024-03-25T10:18:52;29.60;1.00
429;DHT22;201;48.758;9.290;2024-03-25T10:21:20;29.50;1.00
429;DHT22;201;48.758;9.290;2024-03-25T10:23:45;30.40;1.00
429;DHT22;201;48.758;9.290;2024-03-25T10:26:25;29.20;1.00
429;DHT22;201;48.758;9.290;2024-03-25T10:29:04;29.40;1.00
429;DHT22;201;48.758;9.290;2024-03-25T10:31:31;29.50;1.00
429;DHT22;201;48.758;9.290;2024-03-25T10:33:57;28.10;1.00
429;DHT22;201;48.758;9.290;2024-03-25T10:36:24;27.00;1.00
429;DHT22;201;48.758;9.290;2024-03-25T10:38:56;25.00;1.00
429;DHT22;201;48.758;9.290;2024-03-25T10:41:23;21.90;1.00
429;DHT22;201;48.758;9.290;2024-03-25T10:43:52;19.40;1.00
429;DHT22;201;48.758;9.290;2024-03-25T10:46:20;18.10;1.00
429;DHT22;201;48.758;9.290;2024-03-25T10:49:18;17.10;1.00
429;DHT22;201;48.758;9.290;2024-03-25T10:51:50;16.30;1.00
429;DHT22;201;48.758;9.290;2024-03-25T10:54:16;15.80;1.00
429;DHT22;201;48.758;9.290;2024-03-25T10:56:43;15.40;1.00
429;DHT22;201;48.758;9.290;2024-03-25T10:59:10;15.00;1.00
429;DHT22;201;48.758;9.290;2024-03-25T11:01:37;15.30;1.00
429;DHT22;201;48.758;9.290;2024-03-25T11:04:03;15.50;1.00
429;DHT22;201;48.758;9.290;2024-03-25T11:06:31;16.20;1.00
429;DHT22;201;48.758;9.290;2024-03-25T11:08:58;17.00;1.00
429;DHT22;201;48.758;9.290;2024-03-25T11:11:23;17.30;1.00
429;DHT22;201;48.758;9.290;2024-03-25T11:13:49;17.30;1.00
429;DHT22;201;48.758;9.290;2024-03-25T11:16:28;17.30;1.00
429;DHT22;201;48.758;9.290;2024-03-25T11:18:54;16.60;1.00
429;DHT22;201;48.758;9.290;2024-03-25T11:21:25;16.50;1.00
429;DHT22;201;48.758;9.290;2024-03-25T11:23:51;16.60;1.00
429;DHT22;201;48.758;9.290;2024-03-25T11:26:39;16.70;1.00
429;DHT22;201;48.758;9.290;2024-03-25T11:29:05;17.00;1.00
429;DHT22;201;48.758;9.290;2024-03-25T11:31:37;17.50;1.00
429;DHT22;201;48.758;9.290;2024-03-25T11:34:04;17.80;1.00
429;DHT22;201;48.758;9.290;2024-03-25T11:36:30;18.00;1.00
429;DHT22;201;48.758;9.290;2024-03-25T11:39:03;17.60;1.00
429;DHT22;201;48.758;9.290;2024-03-25T11:41:39;17.60;1.00
429;DHT22;201;48.758;9.290;2024-03-25T11:44:05;17.00;1.00
429;DHT22;201;48.758;9.290;2024-03-25T11:46:38;16.80;1.00
429;DHT22;201;48.758;9.290;2024-03-25T11:49:14;16.70;1.00
429;DHT22;201;48.758;9.290;2024-03-25T11:51:40;16.00;1.00
429;DHT22;201;48.758;9.290;2024-03-25T11:54:07;15.70;1.00
429;DHT22;201;48.758;9.290;2024-03-25T11:56:36;15.50;1.00
429;DHT22;201;48.758;9.290;2024-03-25T11:59:03;15.80;1.00
429;DHT22;201;48.758;9.290;2024-03-25T12:01:29;15.90;1.00
429;DHT22;201;48.758;9.290;2024-03-25T12:03:54;16.10;1.00
429;DHT22;201;48.758;9.290;2024-03-25T12:06:20;16.10;1.00
429;DHT22;201;48.758;9.290;2024-03-25T12:08:45;16.00;1.00
429;DHT22;201;48.758;9.290;2024-03-25T12:11:31;16.10;1.00
429;DHT22;201;48.758;9.290;2024-03-25T12:13:58;16.10;1.00
429;DHT22;201;48.758;9.290;2024-03-25T12:16:24;15.90;1.00
429;DHT22;201;48.758;9.290;2024-03-25T12:18:50;15.80;1.00
429;DHT22;201;48.758;9.290;2024-03-25T12:21:17;15.50;1.00
429;DHT22;201;48.758;9.290;2024-03-25T12:23:42;15.50;1.00
429;DHT22;201;48.758;9.290;2024-03-25T12:26:08;15.70;1.00
429;DHT22;201;48.758;9.290;2024-03-25T12:28:34;15.60;1.00
429;DHT22;201;48.758;9.290;2024-03-25T12:31:02;15.60;1.00
429;DHT22;201;48.758;9.290;2024-03-25T12:33:28;15.40;1.00
429;DHT22;201;48.758;9.290;2024-03-25T12:35:53;15.30;1.00
429;DHT22;201;48.758;9.290;2024-03-25T12:38:33;15.60;1.00
429;DHT22;201;48.758;9.290;2024-03-25T12:41:11;15.90;1.00
429;DHT22;201;48.758;9.290;2024-03-25T12:43:42;15.70;1.00
429;DHT22;201;48.758;9.290;2024-03-25T12:46:09;15.50;1.00
429;DHT22;201;48.758;9.290;2024-03-25T12:48:36;15.30;1.00
429;DHT22;201;48.758;9.290;2024-03-25T12:51:02;15.20;1.00
429;DHT22;201;48.758;9.290;2024-03-25T12:53:27;15.00;1.00
429;DHT22;201;48.758;9.290;2024-03-25T12:55:53;14.70;1.00
429;DHT22;201;48.758;9.290;2024-03-25T12:58:18;14.40;1.00
429;DHT22;201;48.758;9.290;2024-03-25T13:00:44;14.20;1.00
429;DHT22;201;48.758;9.290;2024-03-25T13:03:10;14.10;1.00
429;DHT22;201;48.758;9.290;2024-03-25T13:05:36;14.40;1.00
429;DHT22;201;48.758;9.290;2024-03-25T13:08:02;14.60;1.00
429;DHT22;201;48.758;9.290;2024-03-25T13:10:29;14.60;1.00
429;DHT22;201;48.758;9.290;2024-03-25T13:12:55;14.50;1.00
429;DHT22;201;48.758;9.290;2024-03-25T13:15:20;14.30;1.00
429;DHT22;201;48.758;9.290;2024-03-25T13:17:46;14.20;1.00
429;DHT22;201;48.758;9.290;2024-03-25T13:20:12;14.30;1.00
429;DHT22;201;48.758;9.290;2024-03-25T13:22:38;14.40;1.00
429;DHT22;201;48.758;9.290;2024-03-25T13:25:05;14.10;1.00
429;DHT22;201;48.758;9.290;2024-03-25T13:27:31;13.90;1.00
429;DHT22;201;48.758;9.290;2024-03-25T13:29:56;13.90;1.00
429;DHT22;201;48.758;9.290;2024-03-25T13:32:22;14.00;1.00
429;DHT22;201;48.758;9.290;2024-03-25T13:34:49;14.40;1.00
429;DHT22;201;48.758;9.290;2024-03-25T13:37:14;14.70;1.00
429;DHT22;201;48.758;9.290;2024-03-25T13:39:40;14.70;1.00
429;DHT22;201;48.758;9.290;2024-03-25T13:42:05;14.60;1.00
429;DHT22;201;48.758;9.290;2024-03-25T13:44:31;14.40;1.00
429;DHT22;201;48.758;9.290;2024-03-25T13:46:57;14.50;1.00
429;DHT22;201;48.758;9.290;2024-03-25T13:49:22;14.60;1.00
429;DHT22;201;48.758;9.290;2024-03-25T13:51:51;14.30;1.00
429;DHT22;201;48.758;9.290;2024-03-25T13:54:21;14.20;1.00
429;DHT22;201;48.758;9.290;2024-03-25T13:56:47;14.10;1.00
429;DHT22;201;48.758;9.290;2024-03-25T13:59:13;14.00;1.00
429;DHT22;201;48.758;9.290;2024-03-25T14:01:39;14.10;1.00
429;DHT22;201;48.758;9.290;2024-03-25T14:04:05;13.90;1.00
429;DHT22;201;48.758;9.290;2024-03-25T14:06:30;13.80;1.00
429;DHT22;201;48.758;9.290;2024-03-25T14:08:58;13.90;1.00
429;DHT22;201;48.758;9.290;2024-03-25T14:11:24;14.00;1.00
429;DHT22;201;48.758;9.290;2024-03-25T14:13:50;14.10;1.00
429;DHT22;201;48.758;9.290;2024-03-25T14:16:15;14.00;1.00
429;DHT22;201;48.758;9.290;2024-03-25T14:18:41;13.80;1.00
429;DHT22;201;48.758;9.290;2024-03-25T14:21:07;13.40;1.00
429;DHT22;201;48.758;9.290;2024-03-25T14:23:32;13.30;1.00
429;DHT22;201;48.758;9.290;2024-03-25T14:25:58;13.30;1.00
429;DHT22;201;48.758;9.290;2024-03-25T14:28:23;13.40;1.00
429;DHT22;201;48.758;9.290;2024-03-25T14:30:49;13.60;1.00
429;DHT22;201;48.758;9.290;2024-03-25T14:33:14;13.60;1.00
429;DHT22;201;48.758;9.290;2024-03-25T14:35:41;13.30;1.00
429;DHT22;201;48.758;9.290;2024-03-25T14:38:06;13.20;1.00
429;DHT22;201;48.758;9.290;2024-03-25T14:40:32;13.40;1.00
429;DHT22;201;48.758;9.290;2024-03-25T14:42:58;13.40;1.00
429;DHT22;201;48.758;9.290;2024-03-25T14:45:23;13.40;1.00
429;DHT22;201;48.758;9.290;2024-03-25T14:47:49;13.30;1.00
429;DHT22;201;48.758;9.290;2024-03-25T14:50:14;13.40;1.00
429;DHT22;201;48.758;9.290;2024-03-25T14:52:41;13.40;1.00
429;DHT22;201;48.758;9.290;2024-03-25T14:55:06;13.20;1.00
429;DHT22;201;48.758;9.290;2024-03-25T14:57:36;13.10;1.00
429;DHT22;201;48.758;9.290;2024-03-25T15:00:01;13.20;1.00
429;DHT22;201;48.758;9.290;2024-03-25T15:02:27;13.10;1.00
429;DHT22;201;48.758;9.290;2024-03-25T15:04:52;13.10;1.00
429;DHT22;201;48.758;9.290;2024-03-25T15:07:19;13.00;1.00
429;DHT22;201;48.758;9.290;2024-03-25T15:09:44;12.70;1.00
429;DHT22;201;48.758;9.290;2024-03-25T15:12:10;12.60;1.00
429;DHT22;201;48.758;9.290;2024-03-25T15:14:37;12.70;1.00
429;DHT22;201;48.758;9.290;2024-03-25T15:17:02;12.80;1.00
429;DHT22;201;48.758;9.290;2024-03-25T15:19:28;12.80;1.00
429;DHT22;201;48.758;9.290;2024-03-25T15:21:53;12.60;1.00
429;DHT22;201;48.758;9.290;2024-03-25T15:24:19;12.50;1.00
429;DHT22;201;48.758;9.290;2024-03-25T15:26:44;12.50;1.00
429;DHT22;201;48.758;9.290;2024-03-25T15:29:10;12.50;1.00
429;DHT22;201;48.758;9.290;2024-03-25T15:31:35;12.50;1.00
429;DHT22;201;48.758;9.290;2024-03-25T15:34:01;12.60;1.00
429;DHT22;201;48.758;9.290;2024-03-25T15:36:27;12.70;1.00
429;DHT22;201;48.758;9.290;2024-03-25T15:38:55;12.70;1.00
429;DHT22;201;48.758;9.290;2024-03-25T15:41:21;12.70;1.00
429;DHT22;201;48.758;9.290;2024-03-25T15:43:51;12.50;1.00
429;DHT22;201;48.758;9.290;2024-03-25T15:46:16;12.30;1.00
429;DHT22;201;48.758;9.290;2024-03-25T15:48:42;12.20;1.00
429;DHT22;201;48.758;9.290;2024-03-25T15:51:08;12.00;1.00
429;DHT22;201;48.758;9.290;2024-03-25T15:53:34;11.80;1.00
429;DHT22;201;48.758;9.290;2024-03-25T15:55:59;11.90;1.00
429;DHT22;201;48.758;9.290;2024-03-25T15:58:24;11.90;1.00
429;DHT22;201;48.758;9.290;2024-03-25T16:00:50;11.90;1.00
429;DHT22;201;48.758;9.290;2024-03-25T16:03:16;11.90;1.00
429;DHT22;201;48.758;9.290;2024-03-25T16:05:42;11.90;1.00
429;DHT22;201;48.758;9.290;2024-03-25T16:08:07;11.80;1.00
429;DHT22;201;48.758;9.290;2024-03-25T16:10:34;11.70;1.00
429;DHT22;201;48.758;9.290;2024-03-25T16:13:01;11.60;1.00
429;DHT22;201;48.758;9.290;2024-03-25T16:15:31;11.50;1.00
429;DHT22;201;48.758;9.290;2024-03-25T16:17:56;11.40;1.00
429;DHT22;201;48.758;9.290;2024-03-25T16:20:22;11.40;1.00
429;DHT22;201;48.758;9.290;2024-03-25T16:22:49;11.30;1.00
429;DHT22;201;48.758;9.290;2024-03-25T16:25:15;11.30;1.00
429;DHT22;201;48.758;9.290;2024-03-25T16:27:41;11.30;1.00
429;DHT22;201;48.758;9.290;2024-03-25T16:30:06;11.30;1.00
429;DHT22;201;48.758;9.290;2024-03-25T16:32:36;11.20;1.00
429;DHT22;201;48.758;9.290;2024-03-25T16:35:02;11.20;1.00
429;DHT22;201;48.758;9.290;2024-03-25T16:37:29;11.10;1.00
429;DHT22;201;48.758;9.290;2024-03-25T16:39:55;10.90;1.00
429;DHT22;201;48.758;9.290;2024-03-25T16:42:20;10.90;1.00
429;DHT22;201;48.758;9.290;2024-03-25T16:44:46;11.00;1.00
429;DHT22;201;48.758;9.290;2024-03-25T16:47:12;10.90;1.00
429;DHT22;201;48.758;9.290;2024-03-25T16:49:38;10.80;1.00
429;DHT22;201;48.758;9.290;2024-03-25T16:52:03;10.80;1.00
429;DHT22;201;48.758;9.290;2024-03-25T16:54:29;10.80;1.00